createdAt,value
2017-03-20T00:00:06.372Z,95.84
2017-03-20T00:00:47.024Z,95.46
2017-03-20T00:01:27.672Z,95.56
2017-03-20T00:02:08.323Z,95.75
2017-03-20T00:02:49.995Z,96.12
2017-03-20T00:03:30.690Z,96.31
2017-03-20T00:04:11.302Z,96.31
2017-03-20T00:04:51.917Z,96.22
2017-03-20T00:05:32.598Z,96.12
2017-03-20T00:06:13.166Z,95.84
2017-03-20T00:06:54.838Z,95.84
2017-03-20T00:07:35.419Z,95.94
2017-03-20T00:08:16.027Z,96.03
2017-03-20T00:08:56.617Z,95.94
2017-03-20T00:09:37.252Z,96.03
2017-03-20T00:10:17.907Z,96.12
2017-03-20T00:10:58.553Z,96.31
2017-03-20T00:11:39.244Z,96.03
2017-03-20T00:12:19.883Z,96.03
2017-03-20T00:13:00.538Z,95.84
2017-03-20T00:13:41.168Z,95.94
2017-03-20T00:14:21.824Z,96.03
2017-03-20T00:15:02.416Z,95.94
2017-03-20T00:15:43.013Z,95.94
2017-03-20T00:16:23.591Z,96.7
2017-03-20T00:17:04.224Z,96.79
2017-03-20T00:17:44.815Z,96.41
2017-03-20T00:18:25.415Z,96.6
2017-03-20T00:19:05.979Z,96.41
2017-03-20T00:19:46.651Z,96.41
2017-03-20T00:20:27.303Z,96.7
2017-03-20T00:21:07.945Z,96.6
2017-03-20T00:21:48.613Z,96.51
2017-03-20T00:22:29.253Z,96.41
2017-03-20T00:23:09.894Z,96.41
2017-03-20T00:23:50.572Z,96.41
2017-03-20T00:24:31.182Z,96.41
2017-03-20T00:25:11.797Z,96.41
2017-03-20T00:25:52.392Z,96.41
2017-03-20T00:26:32.985Z,96.51
2017-03-20T00:27:13.603Z,96.6
2017-03-20T00:27:54.194Z,96.22
2017-03-20T00:28:34.794Z,96.12
2017-03-20T00:29:15.364Z,96.31
2017-03-20T00:29:57.025Z,96.79
2017-03-20T00:30:37.634Z,96.79
2017-03-20T00:31:18.232Z,96.89
2017-03-20T00:31:58.798Z,96.31
2017-03-20T00:32:39.447Z,96.41
2017-03-20T00:33:20.029Z,96.7
2017-03-20T00:34:00.642Z,96.7
2017-03-20T00:34:41.214Z,96.51
2017-03-20T00:35:22.903Z,96.31
2017-03-20T00:36:03.473Z,96.41
2017-03-20T00:36:44.057Z,96.7
2017-03-20T00:37:24.646Z,96.79
2017-03-20T00:38:05.311Z,96.31
2017-03-20T00:38:45.977Z,96.79
2017-03-20T00:39:27.591Z,96.89
2017-03-20T00:40:08.246Z,96.98
2017-03-20T00:40:48.839Z,96.79
2017-03-20T00:41:29.471Z,96.79
2017-03-20T00:42:10.122Z,96.6
2017-03-20T00:42:51.819Z,96.79
2017-03-20T00:43:32.481Z,96.89
2017-03-20T00:44:13.094Z,96.7
2017-03-20T00:44:53.776Z,96.7
2017-03-20T00:45:34.430Z,97.27
2017-03-20T00:46:15.063Z,97.36
2017-03-20T00:46:55.659Z,97.46
2017-03-20T00:47:36.264Z,97.27
2017-03-20T00:48:16.837Z,96.98
2017-03-20T00:48:57.478Z,97.17
2017-03-20T00:49:38.128Z,97.27
2017-03-20T00:50:18.814Z,96.98
2017-03-20T00:50:59.438Z,97.08
2017-03-20T00:51:40.089Z,97.08
2017-03-20T00:52:21.773Z,97.17
2017-03-20T00:53:02.422Z,97.17
2017-03-20T00:53:43.063Z,97.27
2017-03-20T00:54:23.722Z,97.17
2017-03-20T00:55:04.349Z,97.17
2017-03-20T00:55:44.919Z,96.98
2017-03-20T00:56:26.601Z,97.17
2017-03-20T00:57:07.240Z,96.98
2017-03-20T00:57:47.812Z,97.27
2017-03-20T00:58:28.451Z,97.17
2017-03-20T00:59:09.096Z,97.08
2017-03-20T00:59:49.669Z,96.98
2017-03-20T01:00:30.328Z,97.17
2017-03-20T01:01:10.962Z,97.55
2017-03-20T01:01:52.654Z,97.74
2017-03-20T01:02:33.288Z,97.17
2017-03-20T01:03:13.960Z,97.27
2017-03-20T01:03:55.636Z,97.27
2017-03-20T01:04:36.292Z,97.36
2017-03-20T01:05:16.954Z,97.84
2017-03-20T01:05:57.588Z,97.65
2017-03-20T01:06:38.246Z,97.65
2017-03-20T01:07:18.896Z,97.27
2017-03-20T01:07:59.534Z,97.27
2017-03-20T01:08:41.141Z,97.55
2017-03-20T01:09:21.780Z,97.36
2017-03-20T01:10:04.390Z,96.98
2017-03-20T01:10:45.014Z,97.46
2017-03-20T01:11:25.674Z,97.27
2017-03-20T01:12:07.350Z,97.17
2017-03-20T01:12:48.013Z,97.36
2017-03-20T01:13:28.666Z,97.36
2017-03-20T01:14:09.310Z,97.46
2017-03-20T01:14:50.939Z,97.36
2017-03-20T01:15:31.550Z,97.46
2017-03-20T01:16:12.208Z,98.03
2017-03-20T01:16:52.855Z,98.13
2017-03-20T01:17:33.509Z,98.22
2017-03-20T01:18:14.167Z,98.22
2017-03-20T01:18:55.843Z,98.03
2017-03-20T01:19:36.489Z,97.84
2017-03-20T01:20:17.087Z,98.03
2017-03-20T01:20:57.607Z,98.13
2017-03-20T01:21:38.237Z,98.03
2017-03-20T01:22:18.876Z,98.13
2017-03-20T01:22:59.435Z,98.13
2017-03-20T01:23:40.098Z,98.22
2017-03-20T01:24:20.731Z,98.03
2017-03-20T01:25:03.352Z,98.03
2017-03-20T01:25:44.007Z,98.03
2017-03-20T01:26:25.662Z,98.03
2017-03-20T01:27:06.310Z,98.03
2017-03-20T01:27:46.969Z,98.22
2017-03-20T01:28:27.616Z,98.03
2017-03-20T01:29:08.269Z,98.03
2017-03-20T01:29:48.929Z,98.13
2017-03-20T01:30:29.581Z,98.13
2017-03-20T01:31:10.230Z,98.13
2017-03-20T01:31:50.881Z,98.13
2017-03-20T01:32:31.538Z,98.03
2017-03-20T01:33:12.185Z,98.13
2017-03-20T01:33:54.789Z,98.03
2017-03-20T01:34:37.486Z,98.03
2017-03-20T01:35:18.057Z,98.03
2017-03-20T01:35:58.726Z,97.84
2017-03-20T01:36:39.409Z,97.93
2017-03-20T01:37:19.994Z,97.93
2017-03-20T01:38:00.557Z,97.84
2017-03-20T01:38:41.226Z,98.22
2017-03-20T01:39:21.813Z,97.84
2017-03-20T01:40:02.426Z,97.84
2017-03-20T01:40:42.971Z,97.84
2017-03-20T01:41:23.626Z,97.55
2017-03-20T01:42:04.278Z,97.46
2017-03-20T01:42:44.953Z,97.46
2017-03-20T01:43:26.613Z,97.46
2017-03-20T01:44:07.264Z,97.46
2017-03-20T01:44:47.916Z,97.65
2017-03-20T01:45:28.511Z,97.65
2017-03-20T01:46:09.105Z,97.46
2017-03-20T01:46:49.685Z,98.03
2017-03-20T01:47:30.348Z,98.13
2017-03-20T01:48:11.007Z,97.46
2017-03-20T01:48:51.617Z,97.46
2017-03-20T01:49:32.186Z,97.84
2017-03-20T01:50:12.845Z,97.84
2017-03-20T01:50:53.483Z,97.84
2017-03-20T01:51:34.114Z,98.13
2017-03-20T01:52:14.786Z,97.55
2017-03-20T01:52:55.448Z,97.84
2017-03-20T01:53:36.112Z,98.03
2017-03-20T01:54:16.770Z,98.03
2017-03-20T01:54:57.415Z,98.03
2017-03-20T01:55:38.065Z,98.03
2017-03-20T01:56:18.713Z,98.13
2017-03-20T01:56:59.359Z,97.74
2017-03-20T01:57:40.012Z,97.74
2017-03-20T01:58:20.646Z,97.65
2017-03-20T01:59:01.300Z,97.74
2017-03-20T01:59:41.952Z,97.84
2017-03-20T02:00:22.621Z,97.74
2017-03-20T02:01:03.297Z,97.84
2017-03-20T02:01:43.939Z,97.84
2017-03-20T02:02:24.585Z,97.93
2017-03-20T02:03:05.238Z,97.55
2017-03-20T02:03:45.891Z,97.55
2017-03-20T02:04:26.538Z,97.65
2017-03-20T02:05:07.124Z,97.65
2017-03-20T02:05:47.722Z,97.65
2017-03-20T02:06:28.294Z,97.55
2017-03-20T02:07:08.948Z,97.74
2017-03-20T02:07:50.596Z,97.65
2017-03-20T02:08:31.163Z,97.74
2017-03-20T02:09:11.723Z,97.84
2017-03-20T02:09:52.376Z,97.74
2017-03-20T02:10:32.956Z,97.65
2017-03-20T02:11:13.561Z,97.74
2017-03-20T02:11:54.131Z,98.03
2017-03-20T02:12:34.797Z,97.65
2017-03-20T02:13:15.491Z,98.03
2017-03-20T02:13:56.088Z,98.13
2017-03-20T02:14:36.646Z,98.22
2017-03-20T02:15:17.311Z,98.22
2017-03-20T02:15:57.965Z,98.22
2017-03-20T02:16:38.598Z,98.22
2017-03-20T02:17:20.172Z,98.03
2017-03-20T02:18:00.841Z,98.13
2017-03-20T02:18:41.492Z,98.32
2017-03-20T02:19:22.135Z,98.22
2017-03-20T02:20:02.787Z,98.22
2017-03-20T02:20:43.380Z,98.22
2017-03-20T02:21:23.966Z,98.22
2017-03-20T02:22:04.547Z,98.03
2017-03-20T02:22:45.216Z,98.22
2017-03-20T02:23:25.900Z,98.03
2017-03-20T02:24:06.478Z,98.22
2017-03-20T02:24:47.047Z,98.03
2017-03-20T02:25:27.713Z,98.03
2017-03-20T02:26:08.353Z,98.13
2017-03-20T02:26:48.908Z,97.74
2017-03-20T02:27:29.569Z,97.55
2017-03-20T02:28:10.207Z,98.13
2017-03-20T02:28:50.787Z,98.03
2017-03-20T02:29:31.431Z,97.84
2017-03-20T02:30:12.057Z,97.65
2017-03-20T02:30:52.618Z,97.65
2017-03-20T02:31:34.197Z,97.74
2017-03-20T02:32:14.792Z,97.65
2017-03-20T02:32:55.404Z,97.74
2017-03-20T02:33:35.944Z,97.74
2017-03-20T02:34:16.592Z,97.65
2017-03-20T02:34:57.201Z,98.03
2017-03-20T02:35:37.846Z,97.65
2017-03-20T02:36:18.509Z,97.74
2017-03-20T02:36:59.161Z,97.65
2017-03-20T02:37:39.817Z,97.74
2017-03-20T02:38:20.468Z,97.74
2017-03-20T02:39:01.107Z,97.84
2017-03-20T02:39:41.786Z,97.65
2017-03-20T02:40:22.416Z,97.74
2017-03-20T02:41:05.018Z,97.65
2017-03-20T02:41:45.685Z,97.65
2017-03-20T02:42:26.329Z,97.74
2017-03-20T02:43:07.017Z,98.13
2017-03-20T02:43:52.550Z,97.84
2017-03-20T02:44:33.209Z,98.13
2017-03-20T02:45:13.859Z,97.84
2017-03-20T02:45:54.510Z,98.22
2017-03-20T02:46:35.165Z,97.74
2017-03-20T02:47:15.817Z,97.74
2017-03-20T02:47:56.466Z,98.03
2017-03-20T02:48:37.124Z,98.03
2017-03-20T02:49:17.776Z,98.03
2017-03-20T02:49:58.438Z,98.03
2017-03-20T02:50:39.026Z,98.22
2017-03-20T02:51:19.584Z,98.03
2017-03-20T02:52:00.235Z,98.13
2017-03-20T02:52:40.838Z,98.03
2017-03-20T02:53:23.474Z,98.03
2017-03-20T02:54:04.075Z,98.13
2017-03-20T02:54:44.704Z,98.22
2017-03-20T02:55:25.398Z,98.13
2017-03-20T02:56:05.980Z,98.22
2017-03-20T02:56:46.534Z,98.13
2017-03-20T02:57:27.216Z,98.13
2017-03-20T02:58:07.824Z,98.03
2017-03-20T02:58:48.495Z,98.13
2017-03-20T02:59:29.069Z,98.03
2017-03-20T03:00:09.737Z,98.03
2017-03-20T03:00:50.366Z,98.03
2017-03-20T03:01:31.156Z,98.32
2017-03-20T03:02:14.334Z,98.22
2017-03-20T03:02:54.598Z,98.03
2017-03-20T03:03:35.397Z,98.03
2017-03-20T03:04:17.026Z,97.74
2017-03-20T03:04:57.731Z,98.03
2017-03-20T03:05:38.322Z,98.03
2017-03-20T03:06:18.971Z,98.22
2017-03-20T03:06:59.629Z,98.22
2017-03-20T03:07:40.333Z,97.74
2017-03-20T03:08:20.933Z,98.03
2017-03-20T03:09:01.578Z,98.03
2017-03-20T03:09:42.222Z,97.74
2017-03-20T03:10:22.890Z,98.03
2017-03-20T03:11:03.541Z,98.03
2017-03-20T03:11:44.197Z,98.13
2017-03-20T03:12:24.849Z,97.65
2017-03-20T03:13:05.508Z,97.74
2017-03-20T03:13:46.160Z,97.65
2017-03-20T03:14:26.811Z,97.84
2017-03-20T03:15:07.462Z,98.22
2017-03-20T03:15:48.090Z,97.74
2017-03-20T03:16:28.662Z,97.65
2017-03-20T03:17:09.320Z,97.65
2017-03-20T03:17:49.951Z,97.74
2017-03-20T03:18:30.513Z,97.65
2017-03-20T03:19:17.754Z,97.93
2017-03-20T03:19:58.692Z,97.55
2017-03-20T03:20:39.323Z,97.84
2017-03-20T03:21:19.888Z,97.93
2017-03-20T03:22:02.594Z,97.93
2017-03-20T03:22:43.272Z,97.84
2017-03-20T03:23:24.896Z,97.74
2017-03-20T03:24:05.477Z,98.03
2017-03-20T03:24:46.178Z,97.93
2017-03-20T03:25:26.818Z,97.93
2017-03-20T03:26:07.404Z,97.93
2017-03-20T03:26:47.980Z,97.74
2017-03-20T03:27:28.633Z,97.93
2017-03-20T03:28:09.227Z,97.84
2017-03-20T03:28:49.858Z,97.84
2017-03-20T03:29:30.391Z,97.84
2017-03-20T03:30:11.179Z,97.93
2017-03-20T03:30:52.759Z,97.74
2017-03-20T03:31:33.354Z,97.84
2017-03-20T03:32:13.917Z,97.84
2017-03-20T03:32:54.563Z,98.03
2017-03-20T03:33:35.179Z,97.84
2017-03-20T03:34:15.768Z,98.03
2017-03-20T03:34:56.347Z,97.84
2017-03-20T03:35:36.990Z,97.84
2017-03-20T03:36:18.643Z,97.84
2017-03-20T03:36:59.354Z,97.74
2017-03-20T03:37:39.961Z,97.74
2017-03-20T03:38:25.203Z,97.84
2017-03-20T03:39:07.820Z,98.03
2017-03-20T03:39:48.459Z,98.13
2017-03-20T03:40:29.173Z,98.03
2017-03-20T03:41:09.799Z,98.13
2017-03-20T03:41:50.449Z,98.03
2017-03-20T03:42:31.084Z,98.03
2017-03-20T03:43:11.736Z,98.22
2017-03-20T03:43:52.404Z,97.84
2017-03-20T03:44:33.066Z,97.55
2017-03-20T03:45:13.710Z,97.84
2017-03-20T03:45:54.332Z,98.13
2017-03-20T03:46:34.899Z,98.13
2017-03-20T03:47:15.567Z,98.22
2017-03-20T03:47:56.196Z,97.46
2017-03-20T03:48:36.749Z,97.46
2017-03-20T03:49:17.402Z,97.65
2017-03-20T03:49:58.041Z,97.46
2017-03-20T03:50:38.703Z,97.46
2017-03-20T03:51:19.351Z,97.46
2017-03-20T03:52:00.006Z,97.46
2017-03-20T03:52:40.662Z,97.46
2017-03-20T03:53:21.310Z,97.93
2017-03-20T03:54:01.958Z,97.46
2017-03-20T03:54:42.629Z,97.65
2017-03-20T03:55:23.195Z,97.46
2017-03-20T03:56:03.848Z,97.93
2017-03-20T03:56:44.486Z,97.55
2017-03-20T03:57:25.142Z,98.03
2017-03-20T03:58:05.838Z,98.13
2017-03-20T03:58:48.530Z,97.46
2017-03-20T03:59:29.156Z,97.46
2017-03-20T04:00:10.823Z,97.46
2017-03-20T04:00:56.314Z,97.55
2017-03-20T04:01:38.988Z,97.46
2017-03-20T04:02:19.642Z,97.46
2017-03-20T04:03:01.222Z,97.46
2017-03-20T04:03:41.885Z,97.17
2017-03-20T04:04:22.550Z,97.55
2017-03-20T04:05:05.221Z,97.65
2017-03-20T04:05:45.825Z,97.65
2017-03-20T04:06:26.424Z,97.36
2017-03-20T04:07:06.982Z,97.74
2017-03-20T04:07:47.633Z,97.17
2017-03-20T04:08:29.254Z,97.46
2017-03-20T04:09:09.845Z,97.36
2017-03-20T04:09:50.409Z,97.36
2017-03-20T04:10:31.061Z,97.46
2017-03-20T04:11:11.696Z,97.36
2017-03-20T04:11:52.255Z,97.17
2017-03-20T04:12:32.942Z,97.36
2017-03-20T04:13:13.564Z,97.46
2017-03-20T04:13:54.115Z,97.46
2017-03-20T04:14:35.698Z,97.17
2017-03-20T04:15:16.336Z,97.17
2017-03-20T04:15:56.903Z,97.36
2017-03-20T04:16:37.564Z,97.55
2017-03-20T04:17:18.202Z,97.46
2017-03-20T04:17:58.865Z,97.36
2017-03-20T04:18:39.511Z,97.46
2017-03-20T04:19:20.168Z,97.36
2017-03-20T04:20:00.825Z,97.46
2017-03-20T04:20:41.419Z,97.36
2017-03-20T04:21:22.010Z,97.65
2017-03-20T04:22:02.589Z,97.46
2017-03-20T04:22:43.245Z,97.46
2017-03-20T04:23:23.926Z,97.36
2017-03-20T04:24:04.511Z,97.36
2017-03-20T04:24:45.107Z,97.46
2017-03-20T04:25:25.749Z,97.46
2017-03-20T04:26:06.334Z,97.36
2017-03-20T04:26:47.950Z,97.36
2017-03-20T04:27:28.517Z,97.36
2017-03-20T04:28:10.205Z,97.27
2017-03-20T04:28:50.778Z,97.27
2017-03-20T04:29:31.385Z,97.27
2017-03-20T04:30:11.948Z,97.17
2017-03-20T04:30:53.635Z,97.17
2017-03-20T04:31:34.223Z,96.98
2017-03-20T04:32:14.817Z,97.46
2017-03-20T04:32:55.371Z,97.55
2017-03-20T04:33:36.028Z,97.55
2017-03-20T04:34:16.623Z,97.27
2017-03-20T04:34:57.209Z,97.65
2017-03-20T04:35:37.779Z,97.84
2017-03-20T04:36:18.454Z,97.74
2017-03-20T04:36:59.074Z,97.27
2017-03-20T04:37:39.658Z,97.17
2017-03-20T04:38:20.286Z,97.17
2017-03-20T04:39:00.928Z,96.98
2017-03-20T04:39:41.509Z,97.17
2017-03-20T04:40:22.154Z,97.17
2017-03-20T04:41:02.740Z,97.27
2017-03-20T04:41:43.447Z,96.98
2017-03-20T04:42:24.011Z,97.36
2017-03-20T04:43:04.718Z,97.27
2017-03-20T04:43:45.356Z,96.98
2017-03-20T04:44:25.955Z,96.7
2017-03-20T04:45:06.524Z,96.7
2017-03-20T04:45:47.185Z,96.79
2017-03-20T04:46:28.782Z,96.98
2017-03-20T04:47:09.382Z,96.89
2017-03-20T04:47:49.960Z,96.51
2017-03-20T04:48:30.607Z,96.79
2017-03-20T04:49:11.201Z,96.79
2017-03-20T04:49:51.788Z,96.89
2017-03-20T04:50:32.449Z,96.7
2017-03-20T04:51:13.094Z,96.7
2017-03-20T04:51:53.746Z,96.31
2017-03-20T04:52:34.403Z,96.41
2017-03-20T04:53:16.999Z,96.31
2017-03-20T04:53:58.676Z,96.41
2017-03-20T04:54:39.333Z,96.51
2017-03-20T04:55:19.985Z,96.79
2017-03-20T04:56:01.657Z,96.79
2017-03-20T04:56:42.315Z,96.89
2017-03-20T04:57:22.969Z,96.79
2017-03-20T04:58:03.624Z,96.89
2017-03-20T04:58:44.276Z,96.79
2017-03-20T04:59:24.954Z,96.41
2017-03-20T05:00:05.578Z,96.51
2017-03-20T05:00:46.155Z,96.41
2017-03-20T05:01:26.794Z,96.31
2017-03-20T05:02:07.433Z,96.41
2017-03-20T05:02:48.007Z,96.41
2017-03-20T05:03:28.673Z,96.31
2017-03-20T05:04:09.289Z,96.31
2017-03-20T05:04:49.857Z,96.31
2017-03-20T05:05:30.506Z,96.31
2017-03-20T05:06:11.172Z,96.22
2017-03-20T05:06:51.825Z,96.31
2017-03-20T05:07:32.474Z,96.41
2017-03-20T05:08:14.204Z,96.31
2017-03-20T05:08:54.809Z,96.22
2017-03-20T05:09:35.448Z,96.22
2017-03-20T05:10:16.114Z,96.31
2017-03-20T05:10:58.752Z,96.22
2017-03-20T05:11:39.359Z,96.12
2017-03-20T05:12:20.012Z,96.6
2017-03-20T05:13:00.684Z,96.22
2017-03-20T05:13:41.299Z,96.22
2017-03-20T05:14:22.899Z,96.12
2017-03-20T05:15:03.548Z,96.12
2017-03-20T05:15:45.218Z,96.12
2017-03-20T05:16:25.877Z,96.51
2017-03-20T05:17:08.474Z,96.22
2017-03-20T05:17:49.125Z,96.22
2017-03-20T05:18:30.804Z,96.12
2017-03-20T05:19:11.458Z,96.22
2017-03-20T05:19:52.130Z,96.22
2017-03-20T05:20:32.764Z,96.12
2017-03-20T05:21:13.417Z,96.12
2017-03-20T05:21:54.069Z,96.22
2017-03-20T05:22:34.726Z,96.6
2017-03-20T05:23:15.383Z,96.31
2017-03-20T05:23:56.025Z,96.12
2017-03-20T05:24:36.701Z,96.41
2017-03-20T05:25:18.411Z,96.31
2017-03-20T05:25:59.011Z,96.12
2017-03-20T05:26:41.645Z,96.31
2017-03-20T05:27:23.298Z,96.22
2017-03-20T05:28:03.959Z,96.41
2017-03-20T05:28:45.637Z,96.12
2017-03-20T05:29:26.305Z,96.12
2017-03-20T05:30:08.966Z,96.22
2017-03-20T05:30:49.631Z,96.41
2017-03-20T05:31:31.328Z,96.12
2017-03-20T05:32:11.968Z,96.12
2017-03-20T05:32:52.635Z,96.22
2017-03-20T05:33:33.274Z,96.7
2017-03-20T05:34:13.927Z,96.41
2017-03-20T05:34:54.582Z,96.41
2017-03-20T05:35:35.237Z,96.41
2017-03-20T05:36:15.869Z,96.79
2017-03-20T05:36:56.454Z,96.31
2017-03-20T05:37:37.098Z,96.41
2017-03-20T05:38:18.746Z,96.79
2017-03-20T05:38:59.331Z,96.79
2017-03-20T05:39:39.978Z,96.79
2017-03-20T05:40:22.656Z,96.79
2017-03-20T05:41:03.319Z,96.6
2017-03-20T05:41:43.840Z,96.79
2017-03-20T05:42:24.530Z,96.79
2017-03-20T05:43:07.104Z,96.41
2017-03-20T05:43:48.781Z,96.79
2017-03-20T05:44:29.440Z,96.41
2017-03-20T05:45:10.078Z,96.22
2017-03-20T05:45:51.767Z,96.22
2017-03-20T05:46:33.442Z,96.7
2017-03-20T05:47:14.088Z,96.31
2017-03-20T05:47:54.733Z,96.31
2017-03-20T05:48:36.319Z,96.22
2017-03-20T05:49:18.004Z,96.6
2017-03-20T05:49:59.658Z,96.6
2017-03-20T05:50:40.234Z,96.6
2017-03-20T05:51:20.902Z,96.41
2017-03-20T05:52:02.505Z,96.51
2017-03-20T05:52:43.097Z,96.41
2017-03-20T05:53:23.671Z,96.6
2017-03-20T05:54:09.226Z,96.51
2017-03-20T05:54:50.842Z,96.41
2017-03-20T05:55:31.435Z,96.41
2017-03-20T05:56:12.008Z,96.31
2017-03-20T05:56:53.587Z,96.12
2017-03-20T05:57:36.238Z,96.51
2017-03-20T05:58:16.829Z,96.51
2017-03-20T05:58:57.407Z,96.31
2017-03-20T05:59:39.068Z,96.7
2017-03-20T06:00:19.657Z,96.41
2017-03-20T06:01:00.289Z,96.7
2017-03-20T06:01:40.921Z,96.7
2017-03-20T06:02:22.609Z,96.51
2017-03-20T06:03:03.261Z,95.94
2017-03-20T06:03:44.839Z,95.94
2017-03-20T06:04:25.490Z,96.31
2017-03-20T06:05:06.133Z,96.12
2017-03-20T06:05:46.810Z,96.12
2017-03-20T06:06:27.479Z,96.03
2017-03-20T06:07:08.149Z,95.94
2017-03-20T06:07:48.872Z,95.84
2017-03-20T06:08:29.620Z,95.84
2017-03-20T06:09:10.194Z,96.12
2017-03-20T06:09:50.801Z,96.12
2017-03-20T06:10:31.462Z,96.12
2017-03-20T06:11:12.061Z,96.31
2017-03-20T06:11:52.658Z,95.75
2017-03-20T06:12:33.239Z,95.75
2017-03-20T06:13:13.876Z,95.56
2017-03-20T06:13:54.467Z,95.56
2017-03-20T06:14:35.155Z,95.56
2017-03-20T06:15:15.789Z,95.65
2017-03-20T06:15:56.393Z,95.56
2017-03-20T06:16:37.047Z,95.84
2017-03-20T06:17:17.688Z,95.65
2017-03-20T06:17:58.321Z,95.84
2017-03-20T06:18:39.004Z,96.03
2017-03-20T06:19:19.644Z,95.94
2017-03-20T06:20:00.316Z,96.03
2017-03-20T06:20:40.927Z,95.84
2017-03-20T06:21:21.503Z,95.84
2017-03-20T06:22:03.450Z,95.65
2017-03-20T06:22:44.069Z,95.94
2017-03-20T06:23:24.645Z,95.84
2017-03-20T06:24:05.250Z,95.84
2017-03-20T06:24:45.884Z,95.94
2017-03-20T06:25:26.448Z,95.84
2017-03-20T06:26:07.106Z,95.84
2017-03-20T06:26:47.688Z,95.94
2017-03-20T06:27:28.283Z,95.84
2017-03-20T06:28:08.873Z,95.84
2017-03-20T06:28:49.504Z,95.36
2017-03-20T06:29:30.265Z,95.65
2017-03-20T06:30:10.958Z,95.36
2017-03-20T06:30:51.570Z,96.12
2017-03-20T06:31:32.223Z,95.36
2017-03-20T06:32:12.886Z,95.36
2017-03-20T06:32:53.504Z,95.17
2017-03-20T06:33:34.205Z,95.27
2017-03-20T06:34:14.815Z,95.36
2017-03-20T06:34:55.397Z,94.98
2017-03-20T06:35:36.070Z,95.46
2017-03-20T06:36:16.614Z,95.27
2017-03-20T06:36:57.210Z,94.98
2017-03-20T06:37:37.784Z,94.98
2017-03-20T06:38:18.443Z,95.27
2017-03-20T06:38:59.121Z,95.27
2017-03-20T06:39:39.733Z,95.17
2017-03-20T06:40:20.303Z,95.46
2017-03-20T06:41:00.986Z,95.27
2017-03-20T06:41:41.615Z,95.36
2017-03-20T06:42:22.263Z,94.98
2017-03-20T06:43:02.914Z,94.79
2017-03-20T06:43:43.572Z,94.98
2017-03-20T06:44:24.221Z,94.79
2017-03-20T06:45:04.891Z,95.17
2017-03-20T06:45:45.501Z,94.79
2017-03-20T06:46:26.058Z,94.89
2017-03-20T06:47:06.732Z,95.17
2017-03-20T06:47:47.364Z,94.89
2017-03-20T06:48:27.938Z,95.08
2017-03-20T06:49:08.587Z,95.27
2017-03-20T06:49:49.214Z,95.08
2017-03-20T06:50:29.798Z,95.27
2017-03-20T06:51:10.460Z,94.7
2017-03-20T06:51:51.100Z,94.98
2017-03-20T06:52:31.737Z,95.08
2017-03-20T06:53:12.393Z,95.27
2017-03-20T06:53:53.065Z,95.08
2017-03-20T06:54:33.725Z,94.51
2017-03-20T06:55:14.387Z,94.7
2017-03-20T06:55:54.987Z,94.6
2017-03-20T06:56:35.583Z,94.7
2017-03-20T06:57:17.248Z,94.42
2017-03-20T06:57:57.883Z,94.6
2017-03-20T06:58:38.455Z,94.51
2017-03-20T06:59:19.092Z,94.6
2017-03-20T06:59:59.726Z,94.65
2017-03-20T07:00:40.285Z,94.6
2017-03-20T07:01:20.943Z,94.79
2017-03-20T07:02:01.602Z,94.89
2017-03-20T07:02:42.257Z,94.6
2017-03-20T07:03:22.915Z,94.6
2017-03-20T07:04:03.543Z,94.6
2017-03-20T07:04:44.228Z,94.6
2017-03-20T07:05:24.868Z,94.79
2017-03-20T07:06:10.076Z,94.79
2017-03-20T07:06:50.654Z,94.51
2017-03-20T07:07:31.233Z,94.79
2017-03-20T07:08:11.903Z,94.79
2017-03-20T07:08:52.485Z,94.79
2017-03-20T07:09:33.076Z,94.79
2017-03-20T07:10:13.630Z,94.6
2017-03-20T07:10:54.298Z,94.51
2017-03-20T07:11:34.990Z,94.6
2017-03-20T07:12:15.586Z,94.6
2017-03-20T07:12:56.179Z,94.6
2017-03-20T07:13:36.815Z,94.89
2017-03-20T07:14:17.394Z,94.6
2017-03-20T07:14:57.997Z,94.6
2017-03-20T07:15:38.582Z,94.6
2017-03-20T07:16:19.208Z,94.6
2017-03-20T07:16:59.803Z,94.7
2017-03-20T07:17:40.381Z,94.42
2017-03-20T07:18:20.949Z,94.89
2017-03-20T07:19:01.605Z,94.79
2017-03-20T07:19:42.203Z,94.65
2017-03-20T07:20:22.809Z,94.93
2017-03-20T07:21:03.468Z,94.65
2017-03-20T07:21:44.116Z,94.56
2017-03-20T07:22:24.759Z,94.89
2017-03-20T07:23:05.421Z,94.08
2017-03-20T07:23:46.073Z,94.03
2017-03-20T07:24:26.727Z,94.27
2017-03-20T07:25:07.378Z,94.08
2017-03-20T07:25:48.027Z,93.89
2017-03-20T07:26:28.688Z,94.37
2017-03-20T07:27:09.341Z,94.46
2017-03-20T07:27:49.996Z,94.46
2017-03-20T07:28:30.630Z,94.37
2017-03-20T07:29:11.297Z,94.27
2017-03-20T07:29:51.948Z,94.37
2017-03-20T07:30:32.601Z,94.37
2017-03-20T07:31:13.184Z,94.27
2017-03-20T07:31:53.815Z,94.27
2017-03-20T07:32:34.465Z,94.37
2017-03-20T07:33:15.135Z,94.37
2017-03-20T07:33:55.795Z,94.27
2017-03-20T07:34:36.441Z,93.98
2017-03-20T07:35:17.091Z,93.89
2017-03-20T07:35:57.720Z,94.08
2017-03-20T07:36:38.325Z,93.98
2017-03-20T07:37:18.951Z,94.27
2017-03-20T07:37:59.589Z,94.84
2017-03-20T07:38:40.153Z,94.93
2017-03-20T07:39:20.793Z,94.74
2017-03-20T07:40:02.460Z,94.37
2017-03-20T07:40:43.034Z,94.93
2017-03-20T07:41:24.712Z,94.84
2017-03-20T07:42:05.346Z,94.89
2017-03-20T07:42:46.013Z,94.65
2017-03-20T07:43:26.676Z,94.6
2017-03-20T07:44:07.320Z,94.6
2017-03-20T07:44:48.018Z,94.84
2017-03-20T07:45:28.637Z,94.84
2017-03-20T07:46:09.330Z,94.46
2017-03-20T07:46:49.910Z,94.84
2017-03-20T07:47:30.481Z,94.65
2017-03-20T07:48:11.188Z,94.65
2017-03-20T07:48:51.814Z,94.84
2017-03-20T07:49:32.415Z,94.84
2017-03-20T07:50:12.995Z,94.46
2017-03-20T07:50:53.635Z,94.46
2017-03-20T07:51:34.285Z,94.46
2017-03-20T07:52:14.848Z,94.46
2017-03-20T07:52:55.505Z,94.46
2017-03-20T07:53:36.170Z,94.46
2017-03-20T07:54:16.706Z,94.93
2017-03-20T07:54:57.363Z,94.65
2017-03-20T07:55:37.987Z,94.65
2017-03-20T07:56:18.644Z,94.84
2017-03-20T07:56:59.406Z,94.65
2017-03-20T07:57:40.045Z,94.65
2017-03-20T07:58:20.699Z,94.74
2017-03-20T08:00:33.957Z,94.84
2017-03-20T08:01:14.541Z,94.93
2017-03-20T08:01:55.153Z,94.65
2017-03-20T08:02:35.833Z,95.03
2017-03-20T08:03:16.437Z,94.65
2017-03-20T08:03:57.005Z,94.74
2017-03-20T08:04:37.662Z,94.74
2017-03-20T08:05:18.343Z,94.56
2017-03-20T08:05:58.907Z,94.93
2017-03-20T08:06:39.516Z,94.84
2017-03-20T08:07:20.150Z,94.84
2017-03-20T08:08:00.747Z,93.98
2017-03-20T08:08:41.356Z,94.93
2017-03-20T08:09:23.035Z,94.17
2017-03-20T08:10:03.629Z,94.84
2017-03-20T08:10:44.255Z,94.08
2017-03-20T08:11:24.880Z,94.27
2017-03-20T08:12:05.453Z,94.08
2017-03-20T08:12:46.131Z,94.08
2017-03-20T08:13:26.822Z,94.46
2017-03-20T08:14:07.421Z,94.27
2017-03-20T08:14:48.072Z,94.46
2017-03-20T08:15:28.728Z,94.46
2017-03-20T08:16:09.372Z,94.37
2017-03-20T08:16:50.025Z,94.27
2017-03-20T08:17:30.692Z,94.27
2017-03-20T08:18:11.336Z,94.27
2017-03-20T08:18:52.004Z,94.17
2017-03-20T08:19:32.641Z,94.65
2017-03-20T08:20:13.262Z,94.27
2017-03-20T08:20:53.945Z,94.46
2017-03-20T08:21:34.631Z,94.27
2017-03-20T08:22:15.251Z,94.46
2017-03-20T08:22:55.898Z,94.27
2017-03-20T08:23:36.556Z,94.27
2017-03-20T08:24:17.204Z,94.27
2017-03-20T08:24:57.891Z,93.98
2017-03-20T08:25:38.531Z,94.27
2017-03-20T08:26:19.205Z,93.98
2017-03-20T08:26:59.894Z,94.08
2017-03-20T08:27:40.476Z,94.84
2017-03-20T08:28:21.175Z,94.93
2017-03-20T08:29:01.802Z,94.84
2017-03-20T08:29:42.410Z,94.93
2017-03-20T08:30:22.976Z,94.93
2017-03-20T08:31:03.627Z,94.84
2017-03-20T08:31:44.259Z,94.84
2017-03-20T08:32:24.827Z,94.93
2017-03-20T08:33:05.395Z,94.84
2017-03-20T08:33:45.995Z,94.84
2017-03-20T08:34:26.570Z,94.17
2017-03-20T08:35:07.135Z,94.08
2017-03-20T08:35:47.798Z,94.27
2017-03-20T08:36:28.339Z,94.17
2017-03-20T08:37:08.908Z,94.27
2017-03-20T08:37:49.522Z,94.27
2017-03-20T08:38:30.095Z,93.98
2017-03-20T08:39:10.668Z,93.98
2017-03-20T08:39:51.258Z,94.27
2017-03-20T08:40:31.847Z,93.98
2017-03-20T08:41:12.422Z,94.08
2017-03-20T08:41:53.003Z,94.17
2017-03-20T08:42:33.578Z,94.27
2017-03-20T08:43:14.149Z,94.08
2017-03-20T08:43:54.672Z,94.27
2017-03-20T08:44:35.257Z,94.08
2017-03-20T08:45:15.829Z,93.98
2017-03-20T08:45:56.383Z,94.27
2017-03-20T08:46:36.945Z,94.08
2017-03-20T08:47:17.517Z,93.98
2017-03-20T08:47:58.095Z,93.98